Time;durP1;ratioP1;P1;durP2;ratioP2;P2;SDS_P1;SDS_P2;PMS_P1;PMS_P2;Temp;Humidity;BMP_temperature;BMP_pressure;BME280_temperature;BME280_humidity;BME280_pressure;Samples;Min_cycle;Max_cycle;Signal;HPM_P1;HPM_P2
2023/06/24 00:00:57;;;;;;;15.63;6.70;;;;;;;12.97;100.00;101783.22;6049964;28;20033;-64
2023/06/24 00:03:53;;;;;;;12.33;6.43;;;;;;;12.90;100.00;101791.88;6045482;28;20026;-64
2023/06/24 00:06:48;;;;;;;13.15;5.85;;;;;;;12.76;100.00;101797.56;6049890;28;20017;-64
2023/06/24 00:09:43;;;;;;;11.50;6.43;;;;;;;12.82;100.00;101800.53;6045440;28;20040;-64
2023/06/24 00:12:39;;;;;;;13.10;6.97;;;;;;;13.02;100.00;101804.94;6041069;28;20022;-64
2023/06/24 00:15:34;;;;;;;17.38;7.50;;;;;;;12.94;100.00;101802.13;6049122;28;20157;-64
2023/06/24 00:18:30;;;;;;;15.80;7.67;;;;;;;12.88;100.00;101810.63;6049974;28;20477;-64
2023/06/24 00:21:32;;;;;;;13.88;6.88;;;;;;;12.69;100.00;101793.75;6024364;28;20116;-64
2023/06/24 00:24:28;;;;;;;13.05;6.60;;;;;;;12.70;100.00;101806.06;6041429;28;20023;-63
2023/06/24 00:27:23;;;;;;;14.27;6.95;;;;;;;12.64;100.00;101803.97;6033705;28;20488;-64
2023/06/24 00:30:18;;;;;;;18.27;8.00;;;;;;;12.63;100.00;101811.09;6046305;28;20030;-64
2023/06/24 00:33:14;;;;;;;13.73;6.97;;;;;;;12.49;100.00;101808.78;6038158;28;20029;-64
2023/06/24 00:36:11;;;;;;;12.23;7.10;;;;;;;12.53;100.00;101824.34;6029255;28;20034;-64
2023/06/24 00:39:06;;;;;;;15.90;6.43;;;;;;;12.43;100.00;101811.97;6049633;28;20030;-64
2023/06/24 00:42:02;;;;;;;16.33;6.93;;;;;;;12.61;100.00;101807.72;6049433;28;20080;-64
2023/06/24 00:44:57;;;;;;;12.63;6.60;;;;;;;12.88;100.00;101815.97;6049734;28;20050;-64
2023/06/24 00:47:54;;;;;;;13.60;6.93;;;;;;;12.99;100.00;101818.53;6023131;28;20264;-63
2023/06/24 00:50:50;;;;;;;15.35;7.25;;;;;;;12.85;100.00;101820.72;6034894;28;20085;-63
2023/06/24 00:53:45;;;;;;;14.25;7.50;;;;;;;12.58;100.00;101817.78;6029942;28;20038;-64
2023/06/24 00:56:42;;;;;;;14.13;7.30;;;;;;;12.48;100.00;101823.03;6025326;28;20473;-64
2023/06/24 00:59:38;;;;;;;13.13;6.38;;;;;;;12.36;100.00;101813.47;6028458;28;20433;-64
2023/06/24 01:02:36;;;;;;;15.20;7.13;;;;;;;12.43;100.00;101831.44;6048413;28;20091;-64
2023/06/24 01:05:35;;;;;;;13.30;6.20;;;;;;;12.30;100.00;101819.28;6053699;28;20038;-64
2023/06/24 01:08:30;;;;;;;15.95;7.43;;;;;;;12.55;100.00;101821.56;6049540;28;20038;-64
2023/06/24 01:11:26;;;;;;;13.55;7.28;;;;;;;12.43;100.00;101836.75;6053230;28;20029;-64
2023/06/24 01:14:23;;;;;;;13.95;6.55;;;;;;;12.86;100.00;101823.25;6050023;28;20026;-64
2023/06/24 01:17:26;;;;;;;13.98;6.78;;;;;;;12.95;100.00;101833.09;6032622;28;20069;-64
2023/06/24 01:20:31;;;;;;;15.80;8.00;;;;;;;13.23;100.00;101820.06;6053641;28;20065;-63
2023/06/24 01:23:54;;;;;;;14.32;7.93;;;;;;;13.41;100.00;101827.25;6032853;28;20034;-64
2023/06/24 01:27:05;;;;;;;16.35;7.22;;;;;;;13.42;100.00;101815.63;6030156;28;20065;-64
2023/06/24 01:30:25;;;;;;;15.00;8.13;;;;;;;13.53;100.00;101828.81;6068393;28;20030;-64
2023/06/24 01:33:28;;;;;;;14.45;7.68;;;;;;;13.54;100.00;101821.66;6052935;28;20073;-64
2023/06/24 01:36:25;;;;;;;18.35;8.38;;;;;;;13.52;100.00;101829.81;6046202;28;20030;-63
2023/06/24 01:39:22;;;;;;;16.60;7.10;;;;;;;13.46;100.00;101822.34;6046807;28;20058;-64
2023/06/24 01:42:19;;;;;;;14.05;7.05;;;;;;;13.50;100.00;101828.25;6042343;28;20037;-64
2023/06/24 01:45:23;;;;;;;17.05;7.80;;;;;;;13.60;100.00;101850.44;6043312;28;20373;-64
2023/06/24 01:48:25;;;;;;;14.70;8.15;;;;;;;13.70;100.00;101844.13;6046553;28;20536;-64
2023/06/24 01:51:22;;;;;;;14.75;7.50;;;;;;;13.49;100.00;101853.22;6035206;28;20378;-64
2023/06/24 01:54:22;;;;;;;13.30;7.25;;;;;;;13.58;100.00;101825.75;6031651;28;20022;-64
2023/06/24 01:57:18;;;;;;;16.75;7.43;;;;;;;13.48;100.00;101844.38;6034636;28;20033;-63
2023/06/24 02:00:13;;;;;;;15.07;7.03;;;;;;;13.05;100.00;101844.63;6068055;28;20041;-64
2023/06/24 02:03:09;;;;;;;12.97;7.07;;;;;;;13.10;100.00;101837.09;6052737;28;20373;-64
2023/06/24 02:06:06;;;;;;;13.98;7.38;;;;;;;13.46;100.00;101851.66;6031048;28;20281;-64
2023/06/24 02:09:03;;;;;;;20.63;7.88;;;;;;;13.47;100.00;101839.19;6052779;28;20025;-64
2023/06/24 02:12:01;;;;;;;14.20;7.05;;;;;;;13.55;100.00;101836.69;6061357;28;20049;-64
2023/06/24 02:14:57;;;;;;;15.73;6.97;;;;;;;13.31;100.00;101838.88;6037613;28;20032;-63
2023/06/24 02:17:56;;;;;;;14.93;8.05;;;;;;;13.37;100.00;101835.66;6067444;28;20044;-63
2023/06/24 02:20:51;;;;;;;18.00;6.90;;;;;;;13.22;100.00;101834.34;6043200;28;20499;-64
2023/06/24 02:23:48;;;;;;;16.40;6.43;;;;;;;13.03;100.00;101843.94;6051566;28;20026;-64
2023/06/24 02:26:44;;;;;;;12.70;6.57;;;;;;;12.48;100.00;101828.38;6050724;28;20029;-64
2023/06/24 02:29:40;;;;;;;11.63;5.97;;;;;;;12.34;100.00;101844.66;6058557;28;20495;-64
2023/06/24 02:32:38;;;;;;;13.43;6.35;;;;;;;11.96;100.00;101825.78;6030207;28;20033;-64
2023/06/24 02:35:33;;;;;;;10.73;5.82;;;;;;;11.79;100.00;101836.00;6029753;28;20767;-64
2023/06/24 02:38:28;;;;;;;14.60;6.15;;;;;;;11.78;100.00;101839.59;6067188;28;20034;-64
2023/06/24 02:41:24;;;;;;;14.27;6.83;;;;;;;11.59;100.00;101806.66;6056890;28;20037;-64
2023/06/24 02:44:19;;;;;;;17.10;6.40;;;;;;;11.52;100.00;101821.41;6045817;28;20029;-64
2023/06/24 02:47:15;;;;;;;14.57;6.23;;;;;;;11.47;100.00;101829.75;6051532;28;20491;-64
2023/06/24 02:50:10;;;;;;;11.20;5.85;;;;;;;11.44;100.00;101827.31;6039056;28;20038;-64
2023/06/24 02:53:06;;;;;;;14.00;6.22;;;;;;;11.35;100.00;101830.75;6033066;28;20061;-64
2023/06/24 02:56:03;;;;;;;10.30;5.90;;;;;;;11.37;100.00;101836.78;6049232;28;20033;-64
2023/06/24 02:58:58;;;;;;;11.48;5.57;;;;;;;11.48;100.00;101826.13;6050295;28;20029;-64
2023/06/24 03:01:54;;;;;;;16.17;6.43;;;;;;;12.21;100.00;101841.34;6043451;28;20038;-64
2023/06/24 03:04:51;;;;;;;17.73;6.65;;;;;;;12.17;100.00;101827.47;6040799;28;20080;-64
2023/06/24 03:07:46;;;;;;;14.77;6.65;;;;;;;12.21;100.00;101857.28;6057432;28;20038;-64
2023/06/24 03:10:41;;;;;;;12.43;6.40;;;;;;;11.86;100.00;101845.13;6046024;28;20022;-64
2023/06/24 03:13:37;;;;;;;14.17;6.30;;;;;;;11.76;100.00;101835.38;6050567;28;20018;-64
2023/06/24 03:16:33;;;;;;;12.10;5.93;;;;;;;11.57;100.00;101836.00;6051229;28;20029;-64
2023/06/24 03:19:28;;;;;;;13.32;5.65;;;;;;;11.52;100.00;101847.97;6040900;28;20125;-64
2023/06/24 03:22:24;;;;;;;11.93;6.33;;;;;;;11.39;100.00;101834.84;6015933;28;20454;-64
2023/06/24 03:25:19;;;;;;;16.30;6.32;;;;;;;11.45;100.00;101831.69;6043319;28;20033;-64
2023/06/24 03:28:14;;;;;;;13.73;6.20;;;;;;;11.49;100.00;101854.38;6034860;28;20042;-64
2023/06/24 03:31:10;;;;;;;16.30;6.50;;;;;;;11.41;100.00;101848.84;6047377;28;20423;-64
2023/06/24 03:34:05;;;;;;;12.40;6.23;;;;;;;11.47;100.00;101856.31;6043337;28;20037;-64
2023/06/24 03:37:00;;;;;;;10.67;5.57;;;;;;;11.47;100.00;101863.44;6047374;28;20048;-64
2023/06/24 03:39:56;;;;;;;13.90;7.10;;;;;;;11.43;100.00;101849.56;6050743;28;20389;-64
2023/06/24 03:42:52;;;;;;;11.52;6.05;;;;;;;11.51;100.00;101856.91;6050473;28;20060;-65
2023/06/24 03:45:47;;;;;;;15.40;6.83;;;;;;;11.38;100.00;101851.75;6049618;28;20034;-64
2023/06/24 03:48:43;;;;;;;17.35;5.22;;;;;;;11.40;100.00;101855.13;6050404;28;20034;-64
2023/06/24 03:51:38;;;;;;;14.82;5.63;;;;;;;11.37;100.00;101844.75;6027571;28;20048;-64
2023/06/24 03:54:33;;;;;;;14.10;7.40;;;;;;;11.54;100.00;101873.44;6049598;28;20029;-64
2023/06/24 03:57:29;;;;;;;13.93;6.77;;;;;;;11.42;100.00;101858.50;6047243;28;20040;-64
2023/06/24 04:00:24;;;;;;;16.50;6.30;;;;;;;11.68;100.00;101869.69;6050047;28;20029;-64
2023/06/24 04:03:19;;;;;;;16.47;6.37;;;;;;;11.69;100.00;101866.91;6049407;28;20071;-64
2023/06/24 04:06:15;;;;;;;15.33;6.80;;;;;;;11.81;100.00;101851.78;6047387;28;20598;-64
2023/06/24 04:09:10;;;;;;;11.43;6.13;;;;;;;12.35;100.00;101864.97;6039760;28;20025;-64
2023/06/24 04:12:05;;;;;;;14.57;7.10;;;;;;;12.15;100.00;101863.97;6032490;28;20022;-64
2023/06/24 04:15:03;;;;;;;12.90;6.75;;;;;;;12.20;100.00;101883.03;6046959;28;20273;-64
2023/06/24 04:17:58;;;;;;;16.42;6.18;;;;;;;12.07;100.00;101876.22;6050081;28;20457;-64
2023/06/24 04:20:54;;;;;;;12.43;5.83;;;;;;;12.31;100.00;101877.66;6049845;28;20021;-64
2023/06/24 04:23:49;;;;;;;15.68;6.15;;;;;;;12.53;100.00;101868.72;6037991;28;20054;-64
2023/06/24 04:26:44;;;;;;;11.70;5.73;;;;;;;12.88;100.00;101863.06;6049939;28;20030;-64
2023/06/24 04:29:39;;;;;;;14.83;6.17;;;;;;;13.31;100.00;101863.69;6049646;28;20044;-64
2023/06/24 04:32:35;;;;;;;11.87;5.53;;;;;;;13.40;100.00;101870.84;6049668;28;20057;-64
2023/06/24 04:35:30;;;;;;;11.25;5.45;;;;;;;13.67;100.00;101875.53;6046071;28;20469;-64
2023/06/24 04:38:26;;;;;;;10.25;5.35;;;;;;;13.80;100.00;101861.97;6053363;28;20104;-64
2023/06/24 04:41:21;;;;;;;9.83;5.00;;;;;;;14.07;100.00;101857.66;6045350;28;20041;-64
2023/06/24 04:44:16;;;;;;;12.50;5.50;;;;;;;14.37;100.00;101882.50;6056625;28;20052;-64
2023/06/24 04:47:13;;;;;;;8.75;4.75;;;;;;;14.69;100.00;101867.00;6057553;28;20112;-64
2023/06/24 04:50:12;;;;;;;10.77;4.75;;;;;;;14.65;100.00;101876.28;6048829;28;20539;-64
2023/06/24 04:53:07;;;;;;;12.32;5.13;;;;;;;15.02;100.00;101869.16;6048012;28;20029;-64
2023/06/24 04:56:03;;;;;;;9.47;4.93;;;;;;;15.13;100.00;101877.00;6070477;28;20029;-64
2023/06/24 04:58:58;;;;;;;12.15;4.90;;;;;;;15.58;100.00;101865.53;6042470;28;20060;-64
2023/06/24 05:01:53;;;;;;;8.00;4.70;;;;;;;15.69;100.00;101873.34;6057462;28;20260;-64
2023/06/24 05:04:49;;;;;;;12.83;4.63;;;;;;;15.98;100.00;101887.38;6056502;28;20038;-64
2023/06/24 05:07:44;;;;;;;8.70;5.00;;;;;;;16.33;100.00;101890.03;6057406;28;20029;-64
2023/06/24 05:10:40;;;;;;;10.90;4.57;;;;;;;16.61;100.00;101886.25;6042616;28;20042;-64
2023/06/24 05:13:35;;;;;;;10.83;4.17;;;;;;;17.12;100.00;101888.09;6047244;28;20478;-64
2023/06/24 05:16:30;;;;;;;10.75;4.65;;;;;;;17.02;100.00;101886.53;6052831;28;20363;-64
2023/06/24 05:19:26;;;;;;;9.87;4.87;;;;;;;17.24;96.54;101853.78;6035462;28;20038;-64
2023/06/24 05:22:21;;;;;;;8.37;4.27;;;;;;;17.56;95.20;101886.13;6057236;28;20045;-64
2023/06/24 05:25:17;;;;;;;11.32;4.65;;;;;;;18.17;95.77;101887.59;6045117;28;20049;-64
2023/06/24 05:28:13;;;;;;;8.37;4.73;;;;;;;17.56;92.12;101875.41;6055693;28;20030;-64
2023/06/24 05:31:08;;;;;;;14.30;4.70;;;;;;;17.73;94.74;101903.97;6029351;28;20038;-64
2023/06/24 05:34:03;;;;;;;10.53;4.83;;;;;;;17.77;93.54;101893.75;6035161;28;20069;-64
2023/06/24 05:36:59;;;;;;;13.05;4.57;;;;;;;17.66;94.23;101897.59;6036271;28;20812;-64
2023/06/24 05:39:55;;;;;;;8.55;4.93;;;;;;;17.41;94.34;101905.66;6056777;28;20026;-64
2023/06/24 05:42:51;;;;;;;9.85;4.88;;;;;;;17.59;96.03;101899.22;6056598;28;20417;-64
2023/06/24 05:45:47;;;;;;;11.95;5.00;;;;;;;17.63;95.65;101887.19;6056337;28;20083;-64
2023/06/24 05:48:42;;;;;;;13.73;5.30;;;;;;;17.90;95.69;101898.63;6048396;28;20029;-64
2023/06/24 05:51:37;;;;;;;9.80;5.13;;;;;;;17.88;94.07;101897.97;6033781;28;20026;-64
2023/06/24 05:54:33;;;;;;;12.77;4.67;;;;;;;17.56;95.46;101896.84;6052174;28;20033;-64
2023/06/24 05:57:28;;;;;;;11.33;5.53;;;;;;;17.54;95.84;101904.25;6050234;28;20473;-64
2023/06/24 06:00:23;;;;;;;8.73;5.30;;;;;;;18.12;91.53;101908.75;6052827;28;20029;-64
2023/06/24 06:03:18;;;;;;;10.13;5.70;;;;;;;17.98;93.04;101890.59;6048356;28;20089;-64
2023/06/24 06:06:14;;;;;;;10.33;5.77;;;;;;;18.21;92.70;101913.09;6044220;28;20480;-64
2023/06/24 06:09:09;;;;;;;10.13;5.03;;;;;;;18.29;91.39;101910.47;6052647;28;20033;-64
2023/06/24 06:12:05;;;;;;;10.77;5.83;;;;;;;18.57;91.01;101901.06;6039911;28;20049;-64
2023/06/24 06:15:00;;;;;;;9.13;5.43;;;;;;;18.76;89.13;101908.78;6051681;28;20276;-63
2023/06/24 06:17:56;;;;;;;10.33;5.50;;;;;;;18.62;89.13;101898.72;6052420;28;20037;-63
2023/06/24 06:20:51;;;;;;;11.45;5.40;;;;;;;19.07;87.16;101900.00;6042752;28;20090;-63
2023/06/24 06:23:46;;;;;;;11.52;4.95;;;;;;;19.45;85.26;101915.38;6040344;28;20040;-63
2023/06/24 06:26:43;;;;;;;8.90;4.93;;;;;;;20.00;84.10;101916.06;6038396;28;20030;-63
2023/06/24 06:29:38;;;;;;;9.63;5.10;;;;;;;19.97;81.61;101888.69;6034375;28;20063;-64
2023/06/24 06:32:34;;;;;;;7.87;5.07;;;;;;;20.43;79.28;101905.69;6046692;28;20055;-64
2023/06/24 06:35:29;;;;;;;8.90;5.30;;;;;;;20.20;78.54;101906.50;6032316;28;20042;-64
2023/06/24 06:38:24;;;;;;;8.37;5.00;;;;;;;20.09;78.33;101898.84;6043465;28;20029;-64
2023/06/24 06:41:24;;;;;;;11.98;5.13;;;;;;;20.41;80.14;101908.56;6052095;28;20049;-63
2023/06/24 06:44:19;;;;;;;10.40;5.85;;;;;;;20.20;78.74;101898.44;6051510;28;20036;-64
2023/06/24 06:47:14;;;;;;;9.67;5.67;;;;;;;20.09;79.71;101889.91;6049409;28;20026;-65
2023/06/24 06:50:10;;;;;;;10.67;4.93;;;;;;;20.53;78.88;101906.28;6035649;28;20030;-64
2023/06/24 06:53:05;;;;;;;9.82;5.63;;;;;;;20.17;80.45;101900.63;6041789;28;20271;-64
2023/06/24 06:56:00;;;;;;;11.40;5.60;;;;;;;20.04;81.54;101893.16;6041148;28;20034;-64
2023/06/24 06:58:56;;;;;;;9.70;5.20;;;;;;;19.88;81.36;101885.19;6050153;28;20520;-63
2023/06/24 07:01:51;;;;;;;11.97;5.27;;;;;;;19.67;82.97;101903.00;6051010;28;20431;-64
2023/06/24 07:04:47;;;;;;;8.37;3.90;;;;;;;19.87;82.61;101910.44;6050778;28;20029;-63
2023/06/24 07:07:45;;;;;;;10.13;5.35;;;;;;;20.28;77.62;101891.31;6051100;28;20354;-64
2023/06/24 07:10:40;;;;;;;8.77;4.22;;;;;;;20.53;75.87;101893.66;6036607;28;20022;-64
2023/06/24 07:13:36;;;;;;;7.40;3.53;;;;;;;21.26;73.77;101882.13;6037584;28;20454;-64
2023/06/24 07:16:31;;;;;;;7.88;4.38;;;;;;;20.96;71.42;101875.00;6037998;28;20029;-64
2023/06/24 07:19:26;;;;;;;11.33;3.87;;;;;;;21.38;72.12;101893.28;6051181;28;20029;-64
2023/06/24 07:22:21;;;;;;;9.63;4.10;;;;;;;21.26;70.58;101888.34;6050760;28;20033;-64
2023/06/24 07:25:17;;;;;;;9.83;5.17;;;;;;;21.27;72.59;101895.44;6045661;28;20473;-64
2023/06/24 07:28:12;;;;;;;6.93;4.47;;;;;;;21.10;72.22;101902.03;6050826;28;20315;-64
2023/06/24 07:31:07;;;;;;;10.07;4.87;;;;;;;21.10;73.40;101893.09;6050988;28;20053;-64
2023/06/24 07:34:03;;;;;;;8.83;4.97;;;;;;;21.19;72.18;101892.84;6050187;28;20038;-64
2023/06/24 07:36:58;;;;;;;10.77;5.07;;;;;;;20.73;74.09;101897.53;6043282;28;20040;-64
2023/06/24 07:39:54;;;;;;;11.23;4.70;;;;;;;20.79;74.81;101898.63;6033595;28;20037;-63
2023/06/24 07:42:49;;;;;;;11.50;5.13;;;;;;;21.58;72.15;101913.28;6050508;28;20049;-64
2023/06/24 07:45:44;;;;;;;8.07;4.40;;;;;;;21.29;70.22;101901.47;6049767;28;20033;-64
2023/06/24 07:48:40;;;;;;;8.90;4.50;;;;;;;21.57;69.51;101917.00;6047610;28;20068;-64
2023/06/24 07:51:35;;;;;;;6.67;4.27;;;;;;;21.75;69.88;101912.88;6032140;28;20269;-64
2023/06/24 07:54:30;;;;;;;8.82;4.03;;;;;;;21.85;68.73;101921.50;6050015;28;20112;-64
2023/06/24 07:57:26;;;;;;;9.47;4.27;;;;;;;22.56;66.97;101905.41;6037779;28;20077;-64
2023/06/24 08:00:22;;;;;;;7.22;4.10;;;;;;;22.33;64.87;101922.69;6047042;28;20343;-64
2023/06/24 08:03:17;;;;;;;9.13;4.20;;;;;;;22.55;65.03;101915.41;6046052;28;20022;-65
2023/06/24 08:06:12;;;;;;;10.60;4.70;;;;;;;21.89;66.11;101908.50;6020625;28;20118;-64
2023/06/24 08:09:08;;;;;;;8.40;3.90;;;;;;;22.51;66.94;101904.13;6050174;28;20396;-64
2023/06/24 08:12:03;;;;;;;7.10;3.80;;;;;;;23.21;62.81;101914.00;6049483;28;20411;-64
2023/06/24 08:14:58;;;;;;;9.50;4.47;;;;;;;22.80;61.80;101905.03;6025626;28;20038;-64
2023/06/24 08:17:54;;;;;;;7.73;4.43;;;;;;;22.48;65.37;101918.03;6049976;28;20038;-64
2023/06/24 08:20:50;;;;;;;7.75;4.57;;;;;;;22.65;66.59;101906.97;6049569;28;20044;-64
2023/06/24 08:23:46;;;;;;;6.57;4.50;;;;;;;22.53;63.17;101883.13;6049318;28;20424;-65
2023/06/24 08:26:41;;;;;;;9.63;4.68;;;;;;;22.51;66.60;101898.72;6049673;28;20271;-65
2023/06/24 08:29:37;;;;;;;6.20;4.10;;;;;;;22.40;66.58;101888.44;6049904;28;20034;-65
2023/06/24 08:32:33;;;;;;;7.88;4.07;;;;;;;;;;6046371;28;20054;-64
2023/06/24 08:35:28;;;;;;;6.23;3.90;;;;;;;22.80;62.50;101894.19;6027607;28;20032;-65
2023/06/24 08:38:23;;;;;;;8.10;3.97;;;;;;;22.72;62.73;101908.69;6031111;28;20457;-65
2023/06/24 08:41:18;;;;;;;10.47;4.20;;;;;;;22.74;62.32;101897.69;6049645;28;20041;-64
2023/06/24 08:44:14;;;;;;;8.97;3.67;;;;;;;23.20;57.47;101896.13;6049126;28;20034;-64
2023/06/24 08:47:09;;;;;;;7.43;3.20;;;;;;;23.21;59.05;101884.25;6049542;28;20026;-65
2023/06/24 08:50:08;;;;;;;8.52;3.72;;;;;;;23.19;62.30;101894.44;6041341;28;20492;-65
2023/06/24 08:53:08;;;;;;;5.85;3.45;;;;;;;22.97;61.89;101890.13;6038335;28;20462;-64
2023/06/24 08:56:04;;;;;;;8.73;4.00;;;;;;;23.31;62.73;101898.25;6047069;28;20026;-64
2023/06/24 08:58:59;;;;;;;7.75;3.65;;;;;;;23.38;62.89;101895.59;6042046;28;20072;-64
2023/06/24 09:01:55;;;;;;;7.07;3.30;;;;;;;23.05;60.38;101898.94;6050776;28;20037;-65
2023/06/24 09:04:53;;;;;;;8.20;3.67;;;;;;;23.18;59.62;101881.97;6048386;28;20288;-65
2023/06/24 09:07:48;;;;;;;5.60;3.17;;;;;;;23.50;57.60;101878.59;6049489;28;20030;-65
2023/06/24 09:10:44;;;;;;;6.85;3.17;;;;;;;23.49;60.88;101885.03;6034933;28;20046;-66
2023/06/24 09:13:39;;;;;;;9.50;3.37;;;;;;;23.65;55.71;101890.09;6032195;28;20042;-66
2023/06/24 09:16:34;;;;;;;5.40;3.13;;;;;;;23.37;59.88;101880.38;6049481;28;20026;-66
2023/06/24 09:19:32;;;;;;;6.00;3.23;;;;;;;23.59;61.38;101880.06;6045379;28;20273;-66
2023/06/24 09:22:28;;;;;;;6.00;3.03;;;;;;;23.41;59.38;101885.22;6035748;28;20035;-66
2023/06/24 09:25:24;;;;;;;7.13;3.53;;;;;;;23.61;60.06;101866.34;6049711;28;20038;-66
2023/06/24 09:28:19;;;;;;;6.40;3.67;;;;;;;23.57;57.92;101865.91;6038483;28;20040;-66
2023/06/24 09:31:14;;;;;;;9.00;3.37;;;;;;;23.95;56.03;101878.94;6038894;28;20033;-66
2023/06/24 09:34:14;;;;;;;4.97;2.80;;;;;;;23.77;55.14;101882.22;6048069;28;20069;-66
2023/06/24 09:37:09;;;;;;;5.45;3.08;;;;;;;23.82;56.37;101862.66;6029864;28;20246;-66
2023/06/24 09:40:09;;;;;;;6.57;3.37;;;;;;;23.96;56.86;101870.59;6055460;28;20458;-66
2023/06/24 09:43:05;;;;;;;5.80;3.28;;;;;;;24.25;55.57;101866.72;6035915;28;20516;-66
2023/06/24 09:46:02;;;;;;;6.03;3.55;;;;;;;24.38;55.77;101866.72;6030544;28;20034;-66
2023/06/24 09:48:57;;;;;;;9.95;4.13;;;;;;;24.16;55.83;101865.25;6050566;28;20385;-66
2023/06/24 09:51:58;;;;;;;7.23;3.60;;;;;;;24.31;55.94;101865.88;6032565;28;20033;-66
2023/06/24 09:54:54;;;;;;;8.82;3.70;;;;;;;24.28;56.72;101853.56;6034783;28;20086;-66
2023/06/24 09:57:50;;;;;;;6.43;3.60;;;;;;;24.40;57.20;101861.94;6044515;28;20030;-66
2023/06/24 10:00:46;;;;;;;7.65;3.90;;;;;;;24.38;55.95;101858.56;6034166;28;20034;-66
2023/06/24 10:03:42;;;;;;;6.57;3.65;;;;;;;24.49;57.46;101854.38;6037010;28;20097;-66
2023/06/24 10:06:37;;;;;;;7.45;4.35;;;;;;;24.67;55.74;101841.88;6035057;28;20433;-66
2023/06/24 10:09:33;;;;;;;8.60;4.00;;;;;;;24.36;56.75;101838.97;6027275;28;20035;-66
2023/06/24 10:12:28;;;;;;;8.10;3.67;;;;;;;24.43;56.18;101847.97;6042598;28;20104;-66
2023/06/24 10:15:24;;;;;;;9.88;3.97;;;;;;;24.61;54.41;101840.00;6032948;28;20030;-66
2023/06/24 10:18:31;;;;;;;6.63;4.43;;;;;;;24.97;54.47;101846.84;6040698;28;20401;-66
2023/06/24 10:21:44;;;;;;;8.10;4.43;;;;;;;24.88;54.48;101818.25;6034990;28;20418;-66
2023/06/24 10:24:42;;;;;;;9.82;4.00;;;;;;;25.47;55.23;101840.63;6045150;28;20033;-65
2023/06/24 10:27:42;;;;;;;7.72;3.80;;;;;;;25.54;53.36;101830.59;6034922;28;20038;-65
2023/06/24 10:30:37;;;;;;;11.00;4.65;;;;;;;25.51;52.42;101832.88;6038589;28;20046;-65
2023/06/24 10:33:39;;;;;;;10.20;4.17;;;;;;;25.20;53.51;101837.16;6043413;28;20049;-66
2023/06/24 10:36:36;;;;;;;9.70;3.72;;;;;;;25.37;52.81;101818.50;6050306;28;20348;-65
2023/06/24 10:39:35;;;;;;;8.52;3.67;;;;;;;25.57;53.48;101827.44;6051952;28;20026;-65
2023/06/24 10:42:41;;;;;;;5.72;3.60;;;;;;;25.41;52.88;101812.41;6042122;28;20037;-65
2023/06/24 10:45:37;;;;;;;6.05;3.63;;;;;;;25.75;54.02;101819.38;6051309;28;20034;-66
2023/06/24 10:48:32;;;;;;;8.87;4.10;;;;;;;25.84;50.61;101807.19;6033751;28;20131;-66
2023/06/24 10:51:27;;;;;;;7.83;4.20;;;;;;;25.74;51.51;101789.69;6033196;28;20030;-66
2023/06/24 10:54:23;;;;;;;7.00;3.80;;;;;;;25.76;51.99;101801.19;6051191;28;20026;-66
2023/06/24 10:57:23;;;;;;;8.88;4.03;;;;;;;25.70;52.37;101788.47;6063566;28;20030;-66
2023/06/24 11:00:20;;;;;;;6.32;3.85;;;;;;;25.63;52.77;101793.94;6027685;28;20496;-66
2023/06/24 11:03:21;;;;;;;6.22;3.70;;;;;;;25.91;50.29;101790.81;6042131;28;20026;-66
2023/06/24 11:06:17;;;;;;;5.78;3.65;;;;;;;25.57;52.35;101786.69;6045786;28;20027;-66
2023/06/24 11:09:12;;;;;;;6.70;3.60;;;;;;;26.00;49.88;101774.03;6028864;28;20134;-66
2023/06/24 11:12:10;;;;;;;7.67;4.07;;;;;;;26.16;50.77;101783.53;6043173;28;20495;-66
2023/06/24 11:15:07;;;;;;;6.55;3.17;;;;;;;26.27;50.35;101768.38;6047117;28;20033;-66
2023/06/24 11:18:04;;;;;;;7.07;4.22;;;;;;;26.18;51.82;101765.09;6042407;28;20346;-66
2023/06/24 11:20:59;;;;;;;6.18;3.88;;;;;;;26.20;49.17;101773.06;6044389;28;20346;-66
2023/06/24 11:23:54;;;;;;;6.80;3.60;;;;;;;26.15;49.53;101765.56;6036898;28;20026;-66
2023/06/24 11:26:51;;;;;;;8.50;3.73;;;;;;;26.31;50.57;101775.88;6041361;28;20048;-66
2023/06/24 11:29:46;;;;;;;6.63;3.30;;;;;;;26.67;46.00;101766.91;6046750;28;20057;-66
2023/06/24 11:32:43;;;;;;;7.07;3.60;;;;;;;26.28;52.10;101775.50;6040015;28;20030;-66
2023/06/24 11:35:38;;;;;;;5.43;3.35;;;;;;;26.26;48.64;101756.66;6042525;28;20107;-67
2023/06/24 11:38:33;;;;;;;6.78;3.22;;;;;;;26.65;50.09;101750.00;6028127;28;20034;-67
2023/06/24 11:41:29;;;;;;;6.30;3.40;;;;;;;26.81;49.40;101762.19;6039156;28;20489;-67
2023/06/24 11:44:24;;;;;;;5.82;3.00;;;;;;;27.06;45.87;101746.59;6041204;28;20034;-67
2023/06/24 11:47:23;;;;;;;7.53;3.05;;;;;;;27.11;47.65;101750.28;6045337;28;20036;-66
2023/06/24 11:50:25;;;;;;;6.40;3.00;;;;;;;27.03;47.75;101758.78;6031733;28;20085;-67
2023/06/24 11:53:31;;;;;;;6.32;3.78;;;;;;;26.44;47.98;101753.16;6024095;28;20393;-67
2023/06/24 11:56:36;;;;;;;5.93;3.22;;;;;;;26.29;49.31;101741.78;6039311;28;20030;-66
2023/06/24 11:59:33;;;;;;;5.50;3.33;;;;;;;26.53;48.47;101741.72;6036281;28;20374;-67
2023/06/24 12:02:28;;;;;;;4.78;2.92;;;;;;;26.39;48.08;101744.84;6035620;28;20029;-66
2023/06/24 12:05:28;;;;;;;4.45;3.10;;;;;;;26.10;47.72;101745.47;6034312;28;20421;-67
2023/06/24 12:08:24;;;;;;;5.57;3.28;;;;;;;25.91;48.43;101726.41;6025028;28;20031;-67
2023/06/24 12:11:19;;;;;;;7.23;3.17;;;;;;;26.32;48.31;101744.88;6041484;28;20037;-67
2023/06/24 12:14:14;;;;;;;5.38;3.28;;;;;;;27.02;47.65;101729.03;6035003;28;20359;-67
2023/06/24 12:17:10;;;;;;;4.20;2.63;;;;;;;27.09;46.10;101730.63;6049498;28;20092;-66
2023/06/24 12:20:06;;;;;;;6.10;3.30;;;;;;;26.79;45.07;101734.38;6043023;28;20030;-67
2023/06/24 12:23:03;;;;;;;6.97;3.40;;;;;;;26.63;47.17;101727.63;6035981;28;20468;-67
2023/06/24 12:25:58;;;;;;;4.80;3.00;;;;;;;27.03;45.10;101726.09;6037172;28;20026;-67
2023/06/24 12:28:55;;;;;;;5.75;3.17;;;;;;;27.51;46.19;101738.84;6044068;28;20038;-67
2023/06/24 12:31:51;;;;;;;4.88;2.95;;;;;;;27.00;44.82;101725.72;6046895;28;20022;-67
2023/06/24 12:34:46;;;;;;;6.37;3.40;;;;;;;26.87;48.49;101729.44;6032505;28;20481;-67
2023/06/24 12:37:41;;;;;;;4.90;2.90;;;;;;;27.10;46.09;101732.28;6037796;28;20037;-67
2023/06/24 12:40:36;;;;;;;5.10;3.27;;;;;;;26.80;46.24;101725.97;6019292;28;20042;-67
2023/06/24 12:43:32;;;;;;;7.17;3.10;;;;;;;26.42;48.49;101728.03;6027387;28;20033;-67
2023/06/24 12:46:28;;;;;;;5.95;2.92;;;;;;;26.23;48.66;101718.19;6043000;28;20026;-67
2023/06/24 12:49:23;;;;;;;8.23;3.87;;;;;;;26.22;48.94;101711.09;6044440;28;20033;-67
2023/06/24 12:52:19;;;;;;;4.63;2.97;;;;;;;26.99;48.36;101707.69;6022802;28;20571;-67
2023/06/24 12:55:14;;;;;;;4.82;3.15;;;;;;;26.66;46.59;101713.56;6044878;28;20045;-67
2023/06/24 12:58:09;;;;;;;4.70;3.30;;;;;;;26.33;47.64;101718.53;6044557;28;20382;-67
2023/06/24 13:01:05;;;;;;;4.67;2.70;;;;;;;26.00;48.44;101714.22;6047523;28;20088;-67
2023/06/24 13:04:00;;;;;;;4.60;3.00;;;;;;;26.10;48.94;101712.84;6053369;28;20050;-67
2023/06/24 13:06:55;;;;;;;7.10;3.17;;;;;;;26.77;46.57;101701.88;6043921;28;20038;-66
2023/06/24 13:09:51;;;;;;;7.73;3.70;;;;;;;26.19;48.00;101690.63;6043479;28;20429;-66
2023/06/24 13:12:46;;;;;;;5.80;3.65;;;;;;;27.46;46.83;101708.75;6046779;28;20036;-67
2023/06/24 13:15:41;;;;;;;5.80;3.00;;;;;;;27.70;43.42;101692.19;6036996;28;20040;-67
2023/06/24 13:18:37;;;;;;;5.73;3.57;;;;;;;28.19;42.33;101692.84;6040381;28;20754;-67
2023/06/24 13:21:32;;;;;;;5.77;2.90;;;;;;;28.39;42.64;101697.94;6049865;28;20531;-67
2023/06/24 13:24:27;;;;;;;6.67;2.90;;;;;;;27.57;44.48;101700.59;6049559;28;20034;-67
2023/06/24 13:27:22;;;;;;;6.10;3.70;;;;;;;26.90;46.30;101709.94;6053517;28;20037;-67
2023/06/24 13:30:18;;;;;;;4.47;2.83;;;;;;;26.26;46.31;101704.13;6050862;28;20519;-67
2023/06/24 13:33:14;;;;;;;4.55;2.88;;;;;;;27.30;49.26;101698.47;6032198;28;20077;-67